Ana Sayfa
METAR-TAF:

METAR-TAF

Havaalanları :

Phillip Goldston

Belize City, Belize

Enlem: 17-32N, Boylam: 088-18W, yükseklik: 5 m

Güncel hava durumu gözlemi

Rapor saat 17:00 UTC de 52 dakika önce yapıldı.
Rüzgar kuzeybatıdan 8 kt
Sıcaklık 22°C
Nem 83%
Basınç 1021 hPa
Görüş mesafesi 10 km veya daha fazla
1800 ft yükseklikte az bulutlu
4800 ft yükseklikte parçalı çok bulutlu

METAR: MZBZ 151700Z 31008KT 9999 FEW018 BKN048 22/19 A3017 Q1021 NOSIG

Saat: 11:52 (17:52 UTC)

Tahmin

Rapor saat 15:00 UTC de 2 saat ve 52 dakika önce yapıldı.
Ayın 15'si saat 18 UTC'den ayın 16'si saat 18 UTC'ye kadar geçerli Tahmin
Rüzgar kuzeybatıdan 10 kt ve 20 kt'a kadar ani rüzgarlar
Görüş mesafesi 10 km veya daha fazla
2200 ft yükseklikte az bulutlu
4000 ft yükseklikte parçalı çok bulutlu

TAF: MZBZ 151500Z 1518/1618 31010G20KT 9999 FEW022 BKN040

4.000'den fazla havaalanı için hava durumu gözlemleri ve tahminleri (METAR ve TAF raporları).

Kullanılabilir istasyonlar harita üzerinde sarı ve kırmızı noktalarla gösterilir.

İstasyonun adını görmek için fareyi noktanın üzerinde gezdirin.

Sonrasında hava gözlem ve tahminlerini görmek için tıklayın.

Haritayı değiştirmek için: yaklaştırmak için siyah artı işaretli yeşil düğmeye ve uzaklaştırmak için de eksi işaretli düğmeye hızla tıklayın; bitişik haritalar için yeşil okları kullanın.


METAR-TAF: